sensor_id;sensor_type;location;lat;lon;timestamp;temperature;humidity
22623;DHT22;11478;51.094;7.030;2022-10-17T00:01:43;12.70;99.90
22623;DHT22;11478;51.094;7.030;2022-10-17T00:04:09;12.80;99.90
22623;DHT22;11478;51.094;7.030;2022-10-17T00:06:35;12.80;99.90
22623;DHT22;11478;51.094;7.030;2022-10-17T00:09:02;12.80;99.90
22623;DHT22;11478;51.094;7.030;2022-10-17T00:11:28;12.80;99.90
22623;DHT22;11478;51.094;7.030;2022-10-17T00:13:58;12.80;99.90
22623;DHT22;11478;51.094;7.030;2022-10-17T00:16:30;12.90;99.90
22623;DHT22;11478;51.094;7.030;2022-10-17T00:18:57;12.90;99.90
22623;DHT22;11478;51.094;7.030;2022-10-17T00:21:24;13.00;99.90
22623;DHT22;11478;51.094;7.030;2022-10-17T00:23:51;13.00;99.90
22623;DHT22;11478;51.094;7.030;2022-10-17T00:26:18;13.00;99.90
22623;DHT22;11478;51.094;7.030;2022-10-17T00:28:47;13.00;99.90
22623;DHT22;11478;51.094;7.030;2022-10-17T00:31:16;13.10;99.90
22623;DHT22;11478;51.094;7.030;2022-10-17T00:33:42;13.10;99.90
22623;DHT22;11478;51.094;7.030;2022-10-17T00:36:23;13.20;99.90
22623;DHT22;11478;51.094;7.030;2022-10-17T00:38:54;13.20;99.90
22623;DHT22;11478;51.094;7.030;2022-10-17T00:41:28;13.30;99.90
22623;DHT22;11478;51.094;7.030;2022-10-17T00:44:56;13.30;99.90
22623;DHT22;11478;51.094;7.030;2022-10-17T00:46:55;13.30;99.90
22623;DHT22;11478;51.094;7.030;2022-10-17T00:49:22;13.40;99.90
22623;DHT22;11478;51.094;7.030;2022-10-17T00:51:53;13.40;99.90
22623;DHT22;11478;51.094;7.030;2022-10-17T00:54:23;13.40;99.90
22623;DHT22;11478;51.094;7.030;2022-10-17T00:56:50;13.40;99.90
22623;DHT22;11478;51.094;7.030;2022-10-17T00:59:19;13.50;99.90
22623;DHT22;11478;51.094;7.030;2022-10-17T01:02:10;13.50;99.90
22623;DHT22;11478;51.094;7.030;2022-10-17T01:04:42;13.40;99.90
22623;DHT22;11478;51.094;7.030;2022-10-17T01:07:09;13.40;99.90
22623;DHT22;11478;51.094;7.030;2022-10-17T01:09:35;13.50;99.90
22623;DHT22;11478;51.094;7.030;2022-10-17T01:15:13;13.50;99.90
22623;DHT22;11478;51.094;7.030;2022-10-17T01:37:45;13.40;99.90
22623;DHT22;11478;51.094;7.030;2022-10-17T01:40:19;13.40;99.90
22623;DHT22;11478;51.094;7.030;2022-10-17T01:48:17;13.40;99.90
22623;DHT22;11478;51.094;7.030;2022-10-17T01:50:58;13.40;99.90
22623;DHT22;11478;51.094;7.030;2022-10-17T01:53:33;13.50;99.90
22623;DHT22;11478;51.094;7.030;2022-10-17T01:56:02;13.40;99.90
22623;DHT22;11478;51.094;7.030;2022-10-17T01:58:33;13.40;99.90
22623;DHT22;11478;51.094;7.030;2022-10-17T02:01:04;13.40;99.90
22623;DHT22;11478;51.094;7.030;2022-10-17T02:03:31;13.40;99.90
22623;DHT22;11478;51.094;7.030;2022-10-17T02:05:59;13.40;99.90
22623;DHT22;11478;51.094;7.030;2022-10-17T02:08:46;13.40;99.90
22623;DHT22;11478;51.094;7.030;2022-10-17T02:25:34;13.40;99.90
22623;DHT22;11478;51.094;7.030;2022-10-17T02:33:28;13.40;99.90
22623;DHT22;11478;51.094;7.030;2022-10-17T02:36:15;13.40;99.90
22623;DHT22;11478;51.094;7.030;2022-10-17T02:39:04;13.40;99.90
22623;DHT22;11478;51.094;7.030;2022-10-17T02:41:31;13.40;99.90
22623;DHT22;11478;51.094;7.030;2022-10-17T02:44:01;13.50;99.90
22623;DHT22;11478;51.094;7.030;2022-10-17T02:46:28;13.40;99.90
22623;DHT22;11478;51.094;7.030;2022-10-17T02:52:07;13.40;99.90
22623;DHT22;11478;51.094;7.030;2022-10-17T02:54:42;13.40;99.90
22623;DHT22;11478;51.094;7.030;2022-10-17T03:00:11;13.40;99.90
22623;DHT22;11478;51.094;7.030;2022-10-17T03:02:44;13.40;99.90
22623;DHT22;11478;51.094;7.030;2022-10-17T03:05:14;13.40;99.90
22623;DHT22;11478;51.094;7.030;2022-10-17T03:07:52;13.40;99.90
22623;DHT22;11478;51.094;7.030;2022-10-17T03:10:19;13.40;99.90
22623;DHT22;11478;51.094;7.030;2022-10-17T03:12:47;13.40;99.90
22623;DHT22;11478;51.094;7.030;2022-10-17T03:15:13;13.30;99.90
22623;DHT22;11478;51.094;7.030;2022-10-17T03:17:39;13.30;99.90
22623;DHT22;11478;51.094;7.030;2022-10-17T03:20:06;13.30;99.90
22623;DHT22;11478;51.094;7.030;2022-10-17T03:22:36;13.30;99.90
22623;DHT22;11478;51.094;7.030;2022-10-17T03:25:02;13.30;99.90
22623;DHT22;11478;51.094;7.030;2022-10-17T03:27:31;13.30;99.90
22623;DHT22;11478;51.094;7.030;2022-10-17T03:29:57;13.20;99.90
22623;DHT22;11478;51.094;7.030;2022-10-17T03:32:56;13.30;99.90
22623;DHT22;11478;51.094;7.030;2022-10-17T03:35:32;13.30;99.90
22623;DHT22;11478;51.094;7.030;2022-10-17T03:37:59;13.30;99.90
22623;DHT22;11478;51.094;7.030;2022-10-17T03:40:25;13.30;99.90
22623;DHT22;11478;51.094;7.030;2022-10-17T03:43:00;13.30;99.90
22623;DHT22;11478;51.094;7.030;2022-10-17T03:45:26;13.30;99.90
22623;DHT22;11478;51.094;7.030;2022-10-17T03:47:52;13.30;99.90
22623;DHT22;11478;51.094;7.030;2022-10-17T03:50:18;13.30;99.90
22623;DHT22;11478;51.094;7.030;2022-10-17T03:52:49;13.30;99.90
22623;DHT22;11478;51.094;7.030;2022-10-17T03:55:19;13.30;99.90
22623;DHT22;11478;51.094;7.030;2022-10-17T03:57:46;13.30;99.90
22623;DHT22;11478;51.094;7.030;2022-10-17T04:00:12;13.30;99.90
22623;DHT22;11478;51.094;7.030;2022-10-17T04:02:38;13.30;99.90
22623;DHT22;11478;51.094;7.030;2022-10-17T04:05:21;13.30;99.90
22623;DHT22;11478;51.094;7.030;2022-10-17T04:07:47;13.30;99.90
22623;DHT22;11478;51.094;7.030;2022-10-17T04:10:14;13.40;99.90
22623;DHT22;11478;51.094;7.030;2022-10-17T04:12:41;13.40;99.90
22623;DHT22;11478;51.094;7.030;2022-10-17T04:15:09;13.40;99.90
22623;DHT22;11478;51.094;7.030;2022-10-17T04:17:35;13.40;99.90
22623;DHT22;11478;51.094;7.030;2022-10-17T04:20:01;13.40;99.90
22623;DHT22;11478;51.094;7.030;2022-10-17T04:22:27;13.30;99.90
22623;DHT22;11478;51.094;7.030;2022-10-17T04:24:53;13.30;99.90
22623;DHT22;11478;51.094;7.030;2022-10-17T04:27:23;13.30;99.90
22623;DHT22;11478;51.094;7.030;2022-10-17T04:29:56;13.30;99.90
22623;DHT22;11478;51.094;7.030;2022-10-17T04:32:22;13.30;99.90
22623;DHT22;11478;51.094;7.030;2022-10-17T04:34:49;13.20;99.90
22623;DHT22;11478;51.094;7.030;2022-10-17T04:37:15;13.20;99.90
22623;DHT22;11478;51.094;7.030;2022-10-17T04:39:41;13.20;99.90
22623;DHT22;11478;51.094;7.030;2022-10-17T04:42:09;13.20;99.90
22623;DHT22;11478;51.094;7.030;2022-10-17T04:44:42;13.20;99.90
22623;DHT22;11478;51.094;7.030;2022-10-17T04:47:08;13.20;99.90
22623;DHT22;11478;51.094;7.030;2022-10-17T04:49:34;13.10;99.90
22623;DHT22;11478;51.094;7.030;2022-10-17T04:52:00;13.10;99.90
22623;DHT22;11478;51.094;7.030;2022-10-17T04:54:27;13.10;99.90
22623;DHT22;11478;51.094;7.030;2022-10-17T04:56:53;13.10;99.90
22623;DHT22;11478;51.094;7.030;2022-10-17T04:59:19;13.10;99.90
22623;DHT22;11478;51.094;7.030;2022-10-17T05:01:48;13.10;99.90
22623;DHT22;11478;51.094;7.030;2022-10-17T05:04:14;13.10;99.90
22623;DHT22;11478;51.094;7.030;2022-10-17T05:06:40;13.20;99.90
22623;DHT22;11478;51.094;7.030;2022-10-17T05:09:09;13.20;99.90
22623;DHT22;11478;51.094;7.030;2022-10-17T05:11:35;13.20;99.90
22623;DHT22;11478;51.094;7.030;2022-10-17T05:14:01;13.30;99.90
22623;DHT22;11478;51.094;7.030;2022-10-17T05:16:28;13.40;99.90
22623;DHT22;11478;51.094;7.030;2022-10-17T05:18:57;13.40;99.90
22623;DHT22;11478;51.094;7.030;2022-10-17T05:21:25;13.50;99.90
22623;DHT22;11478;51.094;7.030;2022-10-17T05:23:52;13.50;99.90
22623;DHT22;11478;51.094;7.030;2022-10-17T05:26:19;13.50;99.90
22623;DHT22;11478;51.094;7.030;2022-10-17T05:28:47;13.50;99.90
22623;DHT22;11478;51.094;7.030;2022-10-17T05:31:13;13.50;99.90
22623;DHT22;11478;51.094;7.030;2022-10-17T05:33:40;13.60;99.90
22623;DHT22;11478;51.094;7.030;2022-10-17T05:36:06;13.60;99.90
22623;DHT22;11478;51.094;7.030;2022-10-17T05:38:32;13.60;99.90
22623;DHT22;11478;51.094;7.030;2022-10-17T05:40:59;13.60;99.90
22623;DHT22;11478;51.094;7.030;2022-10-17T05:43:28;13.60;99.90
22623;DHT22;11478;51.094;7.030;2022-10-17T05:45:54;13.60;99.90
22623;DHT22;11478;51.094;7.030;2022-10-17T05:48:22;13.60;99.90
22623;DHT22;11478;51.094;7.030;2022-10-17T05:50:48;13.70;99.90
22623;DHT22;11478;51.094;7.030;2022-10-17T05:53:15;13.70;99.90
22623;DHT22;11478;51.094;7.030;2022-10-17T05:55:41;13.70;99.90
22623;DHT22;11478;51.094;7.030;2022-10-17T05:58:07;13.70;99.90
22623;DHT22;11478;51.094;7.030;2022-10-17T06:00:34;13.70;99.90
22623;DHT22;11478;51.094;7.030;2022-10-17T06:02:59;13.70;99.90
22623;DHT22;11478;51.094;7.030;2022-10-17T06:05:28;13.70;99.90
22623;DHT22;11478;51.094;7.030;2022-10-17T06:07:53;13.70;99.90
22623;DHT22;11478;51.094;7.030;2022-10-17T06:10:26;13.80;99.90
22623;DHT22;11478;51.094;7.030;2022-10-17T06:12:53;13.80;99.90
22623;DHT22;11478;51.094;7.030;2022-10-17T06:15:26;13.90;99.90
22623;DHT22;11478;51.094;7.030;2022-10-17T06:17:59;13.90;99.90
22623;DHT22;11478;51.094;7.030;2022-10-17T06:20:24;14.00;99.90
22623;DHT22;11478;51.094;7.030;2022-10-17T06:22:50;14.10;99.90
22623;DHT22;11478;51.094;7.030;2022-10-17T06:25:16;14.20;99.90
22623;DHT22;11478;51.094;7.030;2022-10-17T06:28:02;14.20;99.90
22623;DHT22;11478;51.094;7.030;2022-10-17T06:30:31;14.20;99.90
22623;DHT22;11478;51.094;7.030;2022-10-17T06:36:20;14.30;99.90
22623;DHT22;11478;51.094;7.030;2022-10-17T06:38:48;14.20;99.90
22623;DHT22;11478;51.094;7.030;2022-10-17T06:41:16;14.20;99.90
22623;DHT22;11478;51.094;7.030;2022-10-17T06:43:45;14.20;99.90
22623;DHT22;11478;51.094;7.030;2022-10-17T06:46:13;14.30;99.90
22623;DHT22;11478;51.094;7.030;2022-10-17T06:48:42;14.20;99.90
22623;DHT22;11478;51.094;7.030;2022-10-17T06:51:10;14.30;99.90
22623;DHT22;11478;51.094;7.030;2022-10-17T06:53:37;14.50;99.90
22623;DHT22;11478;51.094;7.030;2022-10-17T06:56:07;14.50;99.90
22623;DHT22;11478;51.094;7.030;2022-10-17T06:58:36;14.50;99.90
22623;DHT22;11478;51.094;7.030;2022-10-17T07:01:06;14.60;99.90
22623;DHT22;11478;51.094;7.030;2022-10-17T07:03:33;14.60;99.90
22623;DHT22;11478;51.094;7.030;2022-10-17T07:05:59;14.60;99.90
22623;DHT22;11478;51.094;7.030;2022-10-17T07:08:28;14.70;99.90
22623;DHT22;11478;51.094;7.030;2022-10-17T07:11:08;14.80;99.90
22623;DHT22;11478;51.094;7.030;2022-10-17T07:13:34;14.90;99.90
22623;DHT22;11478;51.094;7.030;2022-10-17T07:16:01;14.90;99.90
22623;DHT22;11478;51.094;7.030;2022-10-17T07:18:30;15.10;99.90
22623;DHT22;11478;51.094;7.030;2022-10-17T07:21:03;15.20;99.90
22623;DHT22;11478;51.094;7.030;2022-10-17T07:23:30;15.30;99.90
22623;DHT22;11478;51.094;7.030;2022-10-17T07:28:52;15.50;99.90
22623;DHT22;11478;51.094;7.030;2022-10-17T07:31:26;15.70;99.90
22623;DHT22;11478;51.094;7.030;2022-10-17T07:34:06;15.90;99.90
22623;DHT22;11478;51.094;7.030;2022-10-17T07:36:32;16.10;99.90
22623;DHT22;11478;51.094;7.030;2022-10-17T07:39:06;16.20;99.90
22623;DHT22;11478;51.094;7.030;2022-10-17T07:41:34;16.30;99.90
22623;DHT22;11478;51.094;7.030;2022-10-17T07:44:18;16.20;99.90
22623;DHT22;11478;51.094;7.030;2022-10-17T07:46:56;16.20;99.90
22623;DHT22;11478;51.094;7.030;2022-10-17T07:49:24;16.20;99.90
22623;DHT22;11478;51.094;7.030;2022-10-17T07:51:50;16.30;99.90
22623;DHT22;11478;51.094;7.030;2022-10-17T07:54:16;16.20;99.90
22623;DHT22;11478;51.094;7.030;2022-10-17T07:56:51;16.20;99.90
22623;DHT22;11478;51.094;7.030;2022-10-17T07:59:20;16.20;99.90
22623;DHT22;11478;51.094;7.030;2022-10-17T08:01:48;16.20;99.90
22623;DHT22;11478;51.094;7.030;2022-10-17T08:04:16;16.30;99.90
22623;DHT22;11478;51.094;7.030;2022-10-17T08:06:44;16.30;99.90
22623;DHT22;11478;51.094;7.030;2022-10-17T08:09:10;16.40;99.90
22623;DHT22;11478;51.094;7.030;2022-10-17T08:11:37;16.50;99.90
22623;DHT22;11478;51.094;7.030;2022-10-17T08:14:03;16.50;99.90
22623;DHT22;11478;51.094;7.030;2022-10-17T08:16:35;16.70;99.90
22623;DHT22;11478;51.094;7.030;2022-10-17T08:19:02;16.70;99.90
22623;DHT22;11478;51.094;7.030;2022-10-17T08:21:29;16.70;99.90
22623;DHT22;11478;51.094;7.030;2022-10-17T08:24:00;16.80;99.90
22623;DHT22;11478;51.094;7.030;2022-10-17T08:26:30;17.00;99.90
22623;DHT22;11478;51.094;7.030;2022-10-17T08:28:59;17.20;99.90
22623;DHT22;11478;51.094;7.030;2022-10-17T08:31:25;17.40;99.90
22623;DHT22;11478;51.094;7.030;2022-10-17T08:33:57;17.50;99.90
22623;DHT22;11478;51.094;7.030;2022-10-17T08:36:30;17.60;99.90
22623;DHT22;11478;51.094;7.030;2022-10-17T08:39:08;17.70;99.90
22623;DHT22;11478;51.094;7.030;2022-10-17T08:47:37;17.70;99.90
22623;DHT22;11478;51.094;7.030;2022-10-17T08:50:39;17.70;99.90
22623;DHT22;11478;51.094;7.030;2022-10-17T08:59:48;17.90;99.90
22623;DHT22;11478;51.094;7.030;2022-10-17T09:14:04;17.70;99.90
22623;DHT22;11478;51.094;7.030;2022-10-17T09:16:58;17.70;99.90
22623;DHT22;11478;51.094;7.030;2022-10-17T09:19:37;17.70;99.90
22623;DHT22;11478;51.094;7.030;2022-10-17T09:22:10;17.60;99.90
22623;DHT22;11478;51.094;7.030;2022-10-17T09:25:08;17.70;99.90
22623;DHT22;11478;51.094;7.030;2022-10-17T09:33:14;18.10;99.90
22623;DHT22;11478;51.094;7.030;2022-10-17T09:35:52;18.10;99.90
22623;DHT22;11478;51.094;7.030;2022-10-17T09:38:51;18.10;99.90
22623;DHT22;11478;51.094;7.030;2022-10-17T09:41:43;18.10;99.90
22623;DHT22;11478;51.094;7.030;2022-10-17T09:44:24;18.20;99.90
22623;DHT22;11478;51.094;7.030;2022-10-17T10:02:36;18.40;99.90
22623;DHT22;11478;51.094;7.030;2022-10-17T10:05:26;18.40;99.90
22623;DHT22;11478;51.094;7.030;2022-10-17T10:08:09;18.40;99.90
22623;DHT22;11478;51.094;7.030;2022-10-17T10:11:08;18.40;99.90
22623;DHT22;11478;51.094;7.030;2022-10-17T10:13:41;18.30;99.90
22623;DHT22;11478;51.094;7.030;2022-10-17T10:16:40;18.30;99.90
22623;DHT22;11478;51.094;7.030;2022-10-17T10:22:39;18.30;99.90
22623;DHT22;11478;51.094;7.030;2022-10-17T10:25:20;18.20;99.90
22623;DHT22;11478;51.094;7.030;2022-10-17T10:27:49;18.20;99.90
22623;DHT22;11478;51.094;7.030;2022-10-17T10:30:24;18.10;99.90
22623;DHT22;11478;51.094;7.030;2022-10-17T10:32:52;18.10;99.90
22623;DHT22;11478;51.094;7.030;2022-10-17T10:35:35;18.10;99.90
22623;DHT22;11478;51.094;7.030;2022-10-17T10:38:08;18.10;99.90
22623;DHT22;11478;51.094;7.030;2022-10-17T10:40:50;18.10;99.90
22623;DHT22;11478;51.094;7.030;2022-10-17T10:43:39;18.10;99.90
22623;DHT22;11478;51.094;7.030;2022-10-17T10:46:26;18.10;99.90
22623;DHT22;11478;51.094;7.030;2022-10-17T10:48:58;18.10;99.90
22623;DHT22;11478;51.094;7.030;2022-10-17T10:51:42;18.10;99.90
22623;DHT22;11478;51.094;7.030;2022-10-17T10:54:24;18.10;99.90
22623;DHT22;11478;51.094;7.030;2022-10-17T10:56:55;18.10;99.90
22623;DHT22;11478;51.094;7.030;2022-10-17T11:02:22;18.10;99.90
22623;DHT22;11478;51.094;7.030;2022-10-17T11:07:52;18.00;99.90
22623;DHT22;11478;51.094;7.030;2022-10-17T11:10:40;18.00;99.90
22623;DHT22;11478;51.094;7.030;2022-10-17T11:16:36;18.00;99.90
22623;DHT22;11478;51.094;7.030;2022-10-17T11:23:31;17.90;99.90
22623;DHT22;11478;51.094;7.030;2022-10-17T11:25:50;17.90;99.90
22623;DHT22;11478;51.094;7.030;2022-10-17T11:28:23;17.90;99.90
22623;DHT22;11478;51.094;7.030;2022-10-17T11:31:33;17.90;99.90
22623;DHT22;11478;51.094;7.030;2022-10-17T11:34:31;17.90;99.90
22623;DHT22;11478;51.094;7.030;2022-10-17T11:37:15;17.90;99.90
22623;DHT22;11478;51.094;7.030;2022-10-17T11:40:44;17.80;99.90
22623;DHT22;11478;51.094;7.030;2022-10-17T11:45:51;17.90;99.90
22623;DHT22;11478;51.094;7.030;2022-10-17T11:48:27;17.90;99.90
22623;DHT22;11478;51.094;7.030;2022-10-17T11:51:12;17.90;99.90
22623;DHT22;11478;51.094;7.030;2022-10-17T11:53:56;17.90;99.90
22623;DHT22;11478;51.094;7.030;2022-10-17T11:56:52;17.90;99.90
22623;DHT22;11478;51.094;7.030;2022-10-17T12:07:57;18.00;99.90
22623;DHT22;11478;51.094;7.030;2022-10-17T12:11:13;18.00;99.90
22623;DHT22;11478;51.094;7.030;2022-10-17T12:13:50;18.00;99.90
22623;DHT22;11478;51.094;7.030;2022-10-17T12:22:16;18.10;99.90
22623;DHT22;11478;51.094;7.030;2022-10-17T12:25:02;18.20;99.90
22623;DHT22;11478;51.094;7.030;2022-10-17T12:27:35;18.20;99.90
22623;DHT22;11478;51.094;7.030;2022-10-17T12:33:04;18.20;99.90
22623;DHT22;11478;51.094;7.030;2022-10-17T12:35:33;18.20;99.90
22623;DHT22;11478;51.094;7.030;2022-10-17T12:38:20;18.20;99.90
22623;DHT22;11478;51.094;7.030;2022-10-17T12:40:49;18.20;99.90
22623;DHT22;11478;51.094;7.030;2022-10-17T12:46:06;18.20;99.90
22623;DHT22;11478;51.094;7.030;2022-10-17T12:51:11;18.10;99.90
22623;DHT22;11478;51.094;7.030;2022-10-17T12:56:14;18.10;99.90
22623;DHT22;11478;51.094;7.030;2022-10-17T12:58:50;18.10;99.90
22623;DHT22;11478;51.094;7.030;2022-10-17T13:01:24;18.10;99.90
22623;DHT22;11478;51.094;7.030;2022-10-17T13:03:52;18.10;99.90
22623;DHT22;11478;51.094;7.030;2022-10-17T13:06:27;18.10;99.90
22623;DHT22;11478;51.094;7.030;2022-10-17T13:08:57;18.00;99.90
22623;DHT22;11478;51.094;7.030;2022-10-17T13:11:26;18.00;99.90
22623;DHT22;11478;51.094;7.030;2022-10-17T13:13:56;18.00;99.90
22623;DHT22;11478;51.094;7.030;2022-10-17T13:16:54;18.00;99.90
22623;DHT22;11478;51.094;7.030;2022-10-17T13:19:45;18.00;99.90
22623;DHT22;11478;51.094;7.030;2022-10-17T13:22:18;18.00;99.90
22623;DHT22;11478;51.094;7.030;2022-10-17T13:24:45;18.00;99.90
22623;DHT22;11478;51.094;7.030;2022-10-17T13:27:30;18.00;99.90
22623;DHT22;11478;51.094;7.030;2022-10-17T13:30:28;17.90;99.90
22623;DHT22;11478;51.094;7.030;2022-10-17T13:33:03;18.00;99.90
22623;DHT22;11478;51.094;7.030;2022-10-17T13:35:46;17.90;99.90
22623;DHT22;11478;51.094;7.030;2022-10-17T13:38:24;17.90;99.90
22623;DHT22;11478;51.094;7.030;2022-10-17T13:40:54;17.90;99.90
22623;DHT22;11478;51.094;7.030;2022-10-17T13:43:23;17.90;99.90
22623;DHT22;11478;51.094;7.030;2022-10-17T13:45:55;17.90;99.90
22623;DHT22;11478;51.094;7.030;2022-10-17T13:48:30;17.90;99.90
22623;DHT22;11478;51.094;7.030;2022-10-17T13:50:59;17.90;99.90
22623;DHT22;11478;51.094;7.030;2022-10-17T13:53:37;17.80;99.90
22623;DHT22;11478;51.094;7.030;2022-10-17T13:59:12;17.80;99.90
22623;DHT22;11478;51.094;7.030;2022-10-17T14:01:40;17.70;99.90
22623;DHT22;11478;51.094;7.030;2022-10-17T14:04:16;17.70;99.90
22623;DHT22;11478;51.094;7.030;2022-10-17T14:07:20;17.70;99.90
22623;DHT22;11478;51.094;7.030;2022-10-17T14:09:51;17.70;99.90
22623;DHT22;11478;51.094;7.030;2022-10-17T14:12:20;17.70;99.90
22623;DHT22;11478;51.094;7.030;2022-10-17T14:14:51;17.70;99.90
22623;DHT22;11478;51.094;7.030;2022-10-17T14:17:27;17.70;99.90
22623;DHT22;11478;51.094;7.030;2022-10-17T14:19:55;17.80;99.90
22623;DHT22;11478;51.094;7.030;2022-10-17T14:25:37;17.70;99.90
22623;DHT22;11478;51.094;7.030;2022-10-17T14:28:14;17.80;99.90
22623;DHT22;11478;51.094;7.030;2022-10-17T14:30:44;17.80;99.90
22623;DHT22;11478;51.094;7.030;2022-10-17T14:33:27;17.80;99.90
22623;DHT22;11478;51.094;7.030;2022-10-17T14:35:55;17.80;99.90
22623;DHT22;11478;51.094;7.030;2022-10-17T14:38:25;17.80;99.90
22623;DHT22;11478;51.094;7.030;2022-10-17T14:40:58;17.80;99.90
22623;DHT22;11478;51.094;7.030;2022-10-17T14:43:33;17.80;99.90
22623;DHT22;11478;51.094;7.030;2022-10-17T14:46:01;17.80;99.90
22623;DHT22;11478;51.094;7.030;2022-10-17T14:48:29;17.70;99.90
22623;DHT22;11478;51.094;7.030;2022-10-17T14:51:12;17.70;99.90
22623;DHT22;11478;51.094;7.030;2022-10-17T14:53:43;17.70;99.90
22623;DHT22;11478;51.094;7.030;2022-10-17T14:59:35;17.60;99.90
22623;DHT22;11478;51.094;7.030;2022-10-17T15:02:00;17.60;99.90
22623;DHT22;11478;51.094;7.030;2022-10-17T15:04:28;17.60;99.90
22623;DHT22;11478;51.094;7.030;2022-10-17T15:06:55;17.60;99.90
22623;DHT22;11478;51.094;7.030;2022-10-17T15:09:21;17.60;99.90
22623;DHT22;11478;51.094;7.030;2022-10-17T15:11:48;17.60;99.90
22623;DHT22;11478;51.094;7.030;2022-10-17T15:14:14;17.50;99.90
22623;DHT22;11478;51.094;7.030;2022-10-17T15:16:40;17.50;99.90
22623;DHT22;11478;51.094;7.030;2022-10-17T15:19:08;17.50;99.90
22623;DHT22;11478;51.094;7.030;2022-10-17T15:21:34;17.50;99.90
22623;DHT22;11478;51.094;7.030;2022-10-17T15:24:06;17.50;99.90
22623;DHT22;11478;51.094;7.030;2022-10-17T15:26:33;17.50;99.90
22623;DHT22;11478;51.094;7.030;2022-10-17T15:29:00;17.40;99.90
22623;DHT22;11478;51.094;7.030;2022-10-17T15:31:28;17.40;99.90
22623;DHT22;11478;51.094;7.030;2022-10-17T15:33:54;17.40;99.90
22623;DHT22;11478;51.094;7.030;2022-10-17T15:36:34;17.30;99.90
22623;DHT22;11478;51.094;7.030;2022-10-17T15:39:02;17.30;99.90
22623;DHT22;11478;51.094;7.030;2022-10-17T15:41:32;17.30;99.90
22623;DHT22;11478;51.094;7.030;2022-10-17T15:43:58;17.30;99.90
22623;DHT22;11478;51.094;7.030;2022-10-17T15:46:27;17.30;99.90
22623;DHT22;11478;51.094;7.030;2022-10-17T15:48:54;17.30;99.90
22623;DHT22;11478;51.094;7.030;2022-10-17T15:51:23;17.30;99.90
22623;DHT22;11478;51.094;7.030;2022-10-17T15:53:50;17.20;99.90
22623;DHT22;11478;51.094;7.030;2022-10-17T15:56:29;17.20;99.90
22623;DHT22;11478;51.094;7.030;2022-10-17T15:59:04;17.20;99.90
22623;DHT22;11478;51.094;7.030;2022-10-17T16:01:33;17.10;99.90
22623;DHT22;11478;51.094;7.030;2022-10-17T16:04:00;17.10;99.90
22623;DHT22;11478;51.094;7.030;2022-10-17T16:06:28;17.00;99.90
22623;DHT22;11478;51.094;7.030;2022-10-17T16:08:55;17.00;99.90
22623;DHT22;11478;51.094;7.030;2022-10-17T16:11:41;17.00;99.90
22623;DHT22;11478;51.094;7.030;2022-10-17T16:14:12;17.00;99.90
22623;DHT22;11478;51.094;7.030;2022-10-17T16:16:39;16.90;99.90
22623;DHT22;11478;51.094;7.030;2022-10-17T16:19:07;16.90;99.90
22623;DHT22;11478;51.094;7.030;2022-10-17T16:21:39;16.90;99.90
22623;DHT22;11478;51.094;7.030;2022-10-17T16:24:08;16.90;99.90
22623;DHT22;11478;51.094;7.030;2022-10-17T16:26:34;16.90;99.90
22623;DHT22;11478;51.094;7.030;2022-10-17T16:29:00;16.90;99.90
22623;DHT22;11478;51.094;7.030;2022-10-17T16:31:34;16.90;99.90
22623;DHT22;11478;51.094;7.030;2022-10-17T16:34:01;16.80;99.90
22623;DHT22;11478;51.094;7.030;2022-10-17T16:36:27;16.80;99.90
22623;DHT22;11478;51.094;7.030;2022-10-17T16:38:53;16.80;99.90
22623;DHT22;11478;51.094;7.030;2022-10-17T16:41:24;16.80;99.90
22623;DHT22;11478;51.094;7.030;2022-10-17T16:43:53;16.80;99.90
22623;DHT22;11478;51.094;7.030;2022-10-17T16:46:20;16.80;99.90
22623;DHT22;11478;51.094;7.030;2022-10-17T16:48:47;16.70;99.90
22623;DHT22;11478;51.094;7.030;2022-10-17T16:51:34;16.70;99.90
22623;DHT22;11478;51.094;7.030;2022-10-17T17:07:01;16.60;99.90
22623;DHT22;11478;51.094;7.030;2022-10-17T17:16:09;16.50;99.90
22623;DHT22;11478;51.094;7.030;2022-10-17T17:18:57;16.50;99.90
22623;DHT22;11478;51.094;7.030;2022-10-17T17:21:23;16.40;99.90
22623;DHT22;11478;51.094;7.030;2022-10-17T17:27:50;16.40;99.90
22623;DHT22;11478;51.094;7.030;2022-10-17T17:30:16;16.30;99.90
22623;DHT22;11478;51.094;7.030;2022-10-17T17:32:44;16.30;99.90
22623;DHT22;11478;51.094;7.030;2022-10-17T17:35:09;16.30;99.90
22623;DHT22;11478;51.094;7.030;2022-10-17T17:37:50;16.30;99.90
22623;DHT22;11478;51.094;7.030;2022-10-17T17:40:16;16.20;99.90
22623;DHT22;11478;51.094;7.030;2022-10-17T17:46:04;16.20;99.90
22623;DHT22;11478;51.094;7.030;2022-10-17T17:55:14;16.10;99.90
22623;DHT22;11478;51.094;7.030;2022-10-17T17:58:03;16.10;99.90
22623;DHT22;11478;51.094;7.030;2022-10-17T18:00:29;16.10;99.90
22623;DHT22;11478;51.094;7.030;2022-10-17T18:12:43;16.00;99.90
22623;DHT22;11478;51.094;7.030;2022-10-17T18:15:11;16.00;99.90
22623;DHT22;11478;51.094;7.030;2022-10-17T18:17:37;16.00;99.90
22623;DHT22;11478;51.094;7.030;2022-10-17T18:23:25;15.90;99.90
22623;DHT22;11478;51.094;7.030;2022-10-17T18:25:56;15.90;99.90
22623;DHT22;11478;51.094;7.030;2022-10-17T18:31:40;15.80;99.90
22623;DHT22;11478;51.094;7.030;2022-10-17T18:34:13;15.80;99.90
22623;DHT22;11478;51.094;7.030;2022-10-17T18:36:40;15.70;99.90
22623;DHT22;11478;51.094;7.030;2022-10-17T18:39:37;15.70;99.90
22623;DHT22;11478;51.094;7.030;2022-10-17T18:42:31;15.70;99.90
22623;DHT22;11478;51.094;7.030;2022-10-17T18:44:58;15.70;99.90
22623;DHT22;11478;51.094;7.030;2022-10-17T18:47:45;15.70;99.90
22623;DHT22;11478;51.094;7.030;2022-10-17T18:50:13;15.60;99.90
22623;DHT22;11478;51.094;7.030;2022-10-17T19:02:29;15.50;99.90
22623;DHT22;11478;51.094;7.030;2022-10-17T19:11:30;15.40;99.90
22623;DHT22;11478;51.094;7.030;2022-10-17T19:17:18;15.40;99.90
22623;DHT22;11478;51.094;7.030;2022-10-17T19:23:06;15.30;99.90
22623;DHT22;11478;51.094;7.030;2022-10-17T19:32:18;15.30;99.90
22623;DHT22;11478;51.094;7.030;2022-10-17T19:34:44;15.30;99.90
22623;DHT22;11478;51.094;7.030;2022-10-17T19:40:32;15.30;99.90
22623;DHT22;11478;51.094;7.030;2022-10-17T19:42:59;15.20;99.90
22623;DHT22;11478;51.094;7.030;2022-10-17T19:48:51;15.20;99.90
22623;DHT22;11478;51.094;7.030;2022-10-17T19:51:22;15.20;99.90
22623;DHT22;11478;51.094;7.030;2022-10-17T19:54:12;15.20;99.90
22623;DHT22;11478;51.094;7.030;2022-10-17T19:56:41;15.20;99.90
22623;DHT22;11478;51.094;7.030;2022-10-17T20:09:05;15.10;99.90
22623;DHT22;11478;51.094;7.030;2022-10-17T20:14:36;15.10;99.90
22623;DHT22;11478;51.094;7.030;2022-10-17T20:20:54;15.10;99.90
22623;DHT22;11478;51.094;7.030;2022-10-17T20:23:21;15.10;99.90
22623;DHT22;11478;51.094;7.030;2022-10-17T20:26:04;15.10;99.90